Terminal Aerodrome Forecast
Issued by NWS

Home | Current Version | Previous Version | Text Only | Print | Product List | Glossary On
Versions: 1 2 3 4 5 6 7 8 9 10 11 12 13
631
FTUS43 KICT 272325
TAFRSL
TAF
KRSL 272325Z 2800/2824 18012KT P6SM SCT200
     FM280400 19012KT P6SM SCT200 WS020/23040KT
     FM280900 22010KT P6SM SCT200
     FM281300 27010KT P6SM BKN200
     FM281500 32010KT P6SM BKN130
     FM282000 35014G20KT P6SM BKN090=

USA.gov is the U.S. government's official web portal to all federal, state and local government web resources and services.